PWSweather.com
Personal Weather Stations
Station Observations
DW1086
Crab Meadow, Northport, NY 11768

Crab MeadowNorthport, NY 11768

Lat: 40.92341, Lon: -73.33053

Elevation: 20

Station Type: Davis Vantage Pro 2

http://crabmeadow-weather.org

Latest ConditionsUpdated 12:00:00 PM EST Monday, Jan 21, 2019
Currently Today's Max Today's Min Today's Average
Temperature 10.2°F-12.1°C 14.9°F-9.5°C 6.9°F-13.9°C 10.2°F-12.1°C
Dew Point 1.4°F-17.0°C 7.2°F-13.8°C -1.1°F-18.4°C 2.4°F-16.4°C
Winds 8.1 mph W13.0 kmh W 13.8 mph -22.2 kmh - - 9.5 mph 15.3 kmh
Wind Gusts 13.8 mph22.2 kmh 28.8 mph46.3 kmh - -
Humidity 67% 75% 66% 70%
Pressure 30.00 in1015.9 mb 30.00 in1015.9 mb 29.72 in1006.4 mb -
Hour Temp Dew Point Humidity Winds Wind Gusts Pressure Precip Precip Rate Daily Precip Total
12:00 PM 10.2°F-12.1°C 1.4°F-17.0°C 67% 8.1 mph W13.0 kmh W 13.8 mph22.2 kmh 30.00 in1015.9 mb - 0.00 in0.0 mm 0.00 in0.0 mm
11:50 AM 10.1°F-12.2°C 1.3°F-17.1°C 67% 6.9 mph W11.1 kmh W 24.2 mph38.9 kmh 30.00 in1015.9 mb - 0.00 in0.0 mm 0.00 in0.0 mm
11:40 AM 9.9°F-12.3°C 1.1°F-17.2°C 67% 10.4 mph NW16.7 kmh NW 19.6 mph31.5 kmh 30.00 in1015.9 mb - 0.00 in0.0 mm 0.00 in0.0 mm
11:30 AM 9.9°F-12.3°C 0.8°F-17.3°C 66% 11.5 mph WSW18.5 kmh WSW 24.2 mph38.9 kmh 29.99 in1015.6 mb - 0.00 in0.0 mm 0.00 in0.0 mm
11:20 AM 9.8°F-12.3°C 1.0°F-17.2°C 67% 11.5 mph WNW18.5 kmh WNW 15.0 mph24.1 kmh 30.00 in1015.9 mb - 0.00 in0.0 mm 0.00 in0.0 mm
11:10 AM 9.6°F-12.4°C 0.8°F-17.3°C 67% 9.2 mph WNW14.8 kmh WNW 13.8 mph22.2 kmh 29.99 in1015.6 mb - 0.00 in0.0 mm 0.00 in0.0 mm
11:00 AM 9.4°F-12.6°C 0.6°F-17.4°C 67% 10.4 mph WNW16.7 kmh WNW 25.3 mph40.7 kmh 30.00 in1015.9 mb - 0.00 in0.0 mm 0.00 in0.0 mm
10:50 AM 9.3°F-12.6°C 0.5°F-17.5°C 67% 10.4 mph W16.7 kmh W 16.1 mph25.9 kmh 29.99 in1015.6 mb - 0.00 in0.0 mm 0.00 in0.0 mm
10:40 AM 9.1°F-12.7°C 0.7°F-17.4°C 68% 10.4 mph WNW16.7 kmh WNW 17.3 mph27.8 kmh 29.99 in1015.6 mb - 0.00 in0.0 mm 0.00 in0.0 mm
10:30 AM 9.0°F-12.8°C 0.2°F-17.7°C 67% 6.9 mph WNW11.1 kmh WNW 16.1 mph25.9 kmh 29.98 in1015.2 mb - 0.00 in0.0 mm 0.00 in0.0 mm
10:20 AM 8.9°F-12.8°C 0.5°F-17.5°C 68% 6.9 mph WNW11.1 kmh WNW 10.4 mph16.7 kmh 29.98 in1015.2 mb - 0.00 in0.0 mm 0.00 in0.0 mm
10:10 AM 8.6°F-13.0°C -0.1°F-17.8°C 67% 10.4 mph W16.7 kmh W 18.4 mph29.6 kmh 29.98 in1015.2 mb - 0.00 in0.0 mm 0.00 in0.0 mm
10:00 AM 8.5°F-13.1°C 0.1°F-17.7°C 68% 10.4 mph NW16.7 kmh NW 13.8 mph22.2 kmh 29.98 in1015.2 mb - 0.00 in0.0 mm 0.00 in0.0 mm
09:50 AM 8.2°F-13.2°C 0.1°F-17.7°C 69% 6.9 mph W11.1 kmh W 11.5 mph18.5 kmh 29.97 in1014.9 mb - 0.00 in0.0 mm 0.00 in0.0 mm
09:40 AM 7.9°F-13.4°C 0.1°F-17.7°C 70% 9.2 mph WNW14.8 kmh WNW 17.3 mph27.8 kmh 29.97 in1014.9 mb - 0.00 in0.0 mm 0.00 in0.0 mm
09:30 AM 7.5°F-13.6°C -0.2°F-17.9°C 70% 6.9 mph W11.1 kmh W 13.8 mph22.2 kmh 29.96 in1014.6 mb - 0.00 in0.0 mm 0.00 in0.0 mm
09:20 AM 7.3°F-13.7°C -1.1°F-18.4°C 68% 9.2 mph NW14.8 kmh NW 12.7 mph20.4 kmh 29.96 in1014.6 mb - 0.00 in0.0 mm 0.00 in0.0 mm
09:10 AM 7.2°F-13.8°C -0.5°F-18.1°C 70% 11.5 mph WNW18.5 kmh WNW 19.6 mph31.5 kmh 29.95 in1014.2 mb - 0.00 in0.0 mm 0.00 in0.0 mm
09:00 AM 7.1°F-13.8°C -0.9°F-18.3°C 69% 8.1 mph WNW13.0 kmh WNW 19.6 mph31.5 kmh 29.95 in1014.2 mb - 0.00 in0.0 mm 0.00 in0.0 mm
08:50 AM 7.0°F-13.9°C -0.7°F-18.2°C 70% 9.2 mph NW14.8 kmh NW 11.5 mph18.5 kmh 29.95 in1014.2 mb - 0.00 in0.0 mm 0.00 in0.0 mm
08:40 AM 6.9°F-13.9°C -1.1°F-18.4°C 69% 12.7 mph WNW20.4 kmh WNW 26.5 mph42.6 kmh 29.94 in1013.9 mb - 0.00 in0.0 mm 0.00 in0.0 mm
08:30 AM 7.1°F-13.8°C -0.6°F-18.1°C 70% 10.4 mph W16.7 kmh W 18.4 mph29.6 kmh 29.93 in1013.5 mb - 0.00 in0.0 mm 0.00 in0.0 mm
08:20 AM 7.1°F-13.8°C -0.6°F-18.1°C 70% 10.4 mph W16.7 kmh W 13.8 mph22.2 kmh 29.93 in1013.5 mb - 0.00 in0.0 mm 0.00 in0.0 mm
08:10 AM 7.3°F-13.7°C -0.1°F-17.8°C 71% 6.9 mph W11.1 kmh W 9.2 mph14.8 kmh 29.93 in1013.5 mb - 0.00 in0.0 mm 0.00 in0.0 mm
08:00 AM 7.6°F-13.6°C 0.5°F-17.5°C 72% 6.9 mph W11.1 kmh W 12.7 mph20.4 kmh 29.91 in1012.9 mb - 0.00 in0.0 mm 0.00 in0.0 mm
07:50 AM 7.6°F-13.6°C 0.2°F-17.7°C 71% 10.4 mph WNW16.7 kmh WNW 16.1 mph25.9 kmh 29.91 in1012.9 mb - 0.00 in0.0 mm 0.00 in0.0 mm
07:40 AM 7.7°F-13.5°C 0.2°F-17.7°C 71% 6.9 mph WNW11.1 kmh WNW 11.5 mph18.5 kmh 29.91 in1012.9 mb - 0.00 in0.0 mm 0.00 in0.0 mm
07:30 AM 7.9°F-13.4°C 0.4°F-17.6°C 71% 10.4 mph WNW16.7 kmh WNW 12.7 mph20.4 kmh 29.91 in1012.9 mb - 0.00 in0.0 mm 0.00 in0.0 mm
07:20 AM 7.9°F-13.4°C 0.4°F-17.6°C 71% 6.9 mph W11.1 kmh W 11.5 mph18.5 kmh 29.90 in1012.5 mb - 0.00 in0.0 mm 0.00 in0.0 mm
07:10 AM 8.1°F-13.3°C 0.9°F-17.3°C 72% 10.4 mph WNW16.7 kmh WNW 18.4 mph29.6 kmh 29.89 in1012.2 mb - 0.00 in0.0 mm 0.00 in0.0 mm
07:00 AM 8.3°F-13.2°C 1.4°F-17.0°C 73% 10.4 mph WNW16.7 kmh WNW 11.5 mph18.5 kmh 29.89 in1012.2 mb - 0.00 in0.0 mm 0.00 in0.0 mm
06:50 AM 8.5°F-13.1°C 1.9°F-16.7°C 74% 5.8 mph W9.3 kmh W 13.8 mph22.2 kmh 29.88 in1011.9 mb - 0.00 in0.0 mm 0.00 in0.0 mm
06:40 AM 8.5°F-13.1°C 1.6°F-16.9°C 73% 10.4 mph NW16.7 kmh NW 13.8 mph22.2 kmh 29.87 in1011.5 mb - 0.00 in0.0 mm 0.00 in0.0 mm
06:30 AM 8.4°F-13.1°C 1.0°F-17.2°C 71% 9.2 mph NW14.8 kmh NW 13.8 mph22.2 kmh 29.87 in1011.5 mb - 0.00 in0.0 mm 0.00 in0.0 mm
06:20 AM 8.3°F-13.2°C 0.2°F-17.7°C 69% 10.4 mph NW16.7 kmh NW 16.1 mph25.9 kmh 29.87 in1011.5 mb - 0.00 in0.0 mm 0.00 in0.0 mm
06:10 AM 8.5°F-13.1°C 0.4°F-17.6°C 69% 11.5 mph NW18.5 kmh NW 21.9 mph35.2 kmh 29.86 in1011.2 mb - 0.00 in0.0 mm 0.00 in0.0 mm
06:00 AM 8.5°F-13.1°C 0.1°F-17.7°C 68% 11.5 mph W18.5 kmh W 19.6 mph31.5 kmh 29.86 in1011.2 mb - 0.00 in0.0 mm 0.00 in0.0 mm
05:50 AM 8.5°F-13.1°C 0.4°F-17.6°C 69% 6.9 mph NW11.1 kmh NW 11.5 mph18.5 kmh 29.86 in1011.2 mb - 0.00 in0.0 mm 0.00 in0.0 mm
05:40 AM 8.8°F-12.9°C 0.4°F-17.6°C 68% 11.5 mph WNW18.5 kmh WNW 18.4 mph29.6 kmh 29.85 in1010.8 mb - 0.00 in0.0 mm 0.00 in0.0 mm
05:30 AM 9.0°F-12.8°C 0.9°F-17.3°C 69% 9.2 mph WNW14.8 kmh WNW 20.7 mph33.3 kmh 29.85 in1010.8 mb - 0.00 in0.0 mm 0.00 in0.0 mm
05:20 AM 9.1°F-12.7°C 1.3°F-17.1°C 70% 8.1 mph NW13.0 kmh NW 12.7 mph20.4 kmh 29.85 in1010.8 mb - 0.00 in0.0 mm 0.00 in0.0 mm
05:10 AM 9.2°F-12.7°C 1.1°F-17.2°C 69% 10.4 mph WNW16.7 kmh WNW 17.3 mph27.8 kmh 29.84 in1010.5 mb - 0.00 in0.0 mm 0.00 in0.0 mm
05:00 AM 9.5°F-12.5°C 1.4°F-17.0°C 69% 11.5 mph WNW18.5 kmh WNW 19.6 mph31.5 kmh 29.84 in1010.5 mb - 0.00 in0.0 mm 0.00 in0.0 mm
04:50 AM 9.7°F-12.4°C 1.5°F-16.9°C 69% 9.2 mph W14.8 kmh W 11.5 mph18.5 kmh 29.84 in1010.5 mb - 0.00 in0.0 mm 0.00 in0.0 mm
04:40 AM 9.9°F-12.3°C 1.7°F-16.8°C 69% 9.2 mph NW14.8 kmh NW 19.6 mph31.5 kmh 29.83 in1010.2 mb - 0.00 in0.0 mm 0.00 in0.0 mm
04:30 AM 10.1°F-12.2°C 2.3°F-16.5°C 70% 11.5 mph WNW18.5 kmh WNW 23.0 mph37.0 kmh 29.83 in1010.2 mb - 0.00 in0.0 mm 0.00 in0.0 mm
04:20 AM 10.3°F-12.1°C 2.4°F-16.4°C 70% 6.9 mph WNW11.1 kmh WNW 11.5 mph18.5 kmh 29.82 in1009.8 mb - 0.00 in0.0 mm 0.00 in0.0 mm
04:10 AM 10.5°F-11.9°C 2.9°F-16.2°C 71% 8.1 mph WNW13.0 kmh WNW 16.1 mph25.9 kmh 29.82 in1009.8 mb - 0.00 in0.0 mm 0.00 in0.0 mm
04:00 AM 10.8°F-11.8°C 2.9°F-16.2°C 70% 11.5 mph NW18.5 kmh NW 21.9 mph35.2 kmh 29.82 in1009.8 mb - 0.00 in0.0 mm 0.00 in0.0 mm
03:50 AM 11.1°F-11.6°C 3.8°F-15.7°C 72% 12.7 mph NW20.4 kmh NW 19.6 mph31.5 kmh 29.82 in1009.8 mb - 0.00 in0.0 mm 0.00 in0.0 mm
03:40 AM 11.3°F-11.5°C 3.7°F-15.7°C 71% 8.1 mph WNW13.0 kmh WNW 13.8 mph22.2 kmh 29.81 in1009.5 mb - 0.00 in0.0 mm 0.00 in0.0 mm
03:30 AM 11.7°F-11.3°C 4.7°F-15.2°C 73% 6.9 mph WNW11.1 kmh WNW 12.7 mph20.4 kmh 29.81 in1009.5 mb - 0.00 in0.0 mm 0.00 in0.0 mm
03:20 AM 11.8°F-11.2°C 5.4°F-14.8°C 75% 11.5 mph NW18.5 kmh NW 20.7 mph33.3 kmh 29.80 in1009.1 mb - 0.00 in0.0 mm 0.00 in0.0 mm
03:10 AM 11.9°F-11.2°C 5.5°F-14.7°C 75% 6.9 mph NW11.1 kmh NW 19.6 mph31.5 kmh 29.80 in1009.1 mb - 0.00 in0.0 mm 0.00 in0.0 mm
03:00 AM 12.0°F-11.1°C 5.3°F-14.8°C 74% 10.4 mph NW16.7 kmh NW 17.3 mph27.8 kmh 29.80 in1009.1 mb - 0.00 in0.0 mm 0.00 in0.0 mm
02:50 AM 12.2°F-11.0°C 5.5°F-14.7°C 74% 10.4 mph NW16.7 kmh NW 15.0 mph24.1 kmh 29.80 in1009.1 mb - 0.00 in0.0 mm 0.00 in0.0 mm
02:40 AM 12.5°F-10.8°C 5.8°F-14.6°C 74% 9.2 mph NW14.8 kmh NW 15.0 mph24.1 kmh 29.79 in1008.8 mb - 0.00 in0.0 mm 0.00 in0.0 mm
02:30 AM 12.7°F-10.7°C 6.0°F-14.4°C 74% 10.4 mph WNW16.7 kmh WNW 19.6 mph31.5 kmh 29.79 in1008.8 mb - 0.00 in0.0 mm 0.00 in0.0 mm
02:20 AM 13.0°F-10.6°C 6.3°F-14.3°C 74% 10.4 mph NW16.7 kmh NW 19.6 mph31.5 kmh 29.79 in1008.8 mb - 0.00 in0.0 mm 0.00 in0.0 mm
02:10 AM 13.2°F-10.4°C 6.5°F-14.2°C 74% 5.8 mph NW9.3 kmh NW 19.6 mph31.5 kmh 29.79 in1008.8 mb - 0.00 in0.0 mm 0.00 in0.0 mm
02:00 AM 13.4°F-10.3°C 6.4°F-14.2°C 73% 8.1 mph NW13.0 kmh NW 13.8 mph22.2 kmh 29.78 in1008.5 mb - 0.00 in0.0 mm 0.00 in0.0 mm
01:50 AM 13.5°F-10.3°C 6.5°F-14.2°C 73% 10.4 mph NW16.7 kmh NW 19.6 mph31.5 kmh 29.77 in1008.1 mb - 0.00 in0.0 mm 0.00 in0.0 mm
01:40 AM 13.5°F-10.3°C 5.8°F-14.6°C 71% 11.5 mph NW18.5 kmh NW 24.2 mph38.9 kmh 29.77 in1008.1 mb - 0.00 in0.0 mm 0.00 in0.0 mm
01:30 AM 13.6°F-10.2°C 5.6°F-14.7°C 70% 10.4 mph NW16.7 kmh NW 24.2 mph38.9 kmh 29.76 in1007.8 mb - 0.00 in0.0 mm 0.00 in0.0 mm
01:20 AM 13.8°F-10.1°C 5.8°F-14.6°C 70% 11.5 mph NW18.5 kmh NW 21.9 mph35.2 kmh 29.75 in1007.5 mb - 0.00 in0.0 mm 0.00 in0.0 mm
01:10 AM 14.0°F-10.0°C 6.3°F-14.3°C 71% 10.4 mph NW16.7 kmh NW 20.7 mph33.3 kmh 29.75 in1007.5 mb - 0.00 in0.0 mm 0.00 in0.0 mm
01:00 AM 14.1°F-9.9°C 5.8°F-14.6°C 69% 8.1 mph NW13.0 kmh NW 23.0 mph37.0 kmh 29.75 in1007.5 mb - 0.00 in0.0 mm 0.00 in0.0 mm
12:50 AM 14.3°F-9.8°C 6.3°F-14.3°C 70% 12.7 mph NW20.4 kmh NW 28.8 mph46.3 kmh 29.74 in1007.1 mb - 0.00 in0.0 mm 0.00 in0.0 mm
12:40 AM 14.4°F-9.8°C 6.4°F-14.2°C 70% 10.4 mph NW16.7 kmh NW 13.8 mph22.2 kmh 29.74 in1007.1 mb - 0.00 in0.0 mm 0.00 in0.0 mm
12:30 AM 14.5°F-9.7°C 6.5°F-14.2°C 70% 6.9 mph NW11.1 kmh NW 23.0 mph37.0 kmh 29.73 in1006.8 mb - 0.00 in0.0 mm 0.00 in0.0 mm
12:20 AM 14.7°F-9.6°C 7.0°F-13.9°C 71% 6.9 mph WNW11.1 kmh WNW 16.1 mph25.9 kmh 29.73 in1006.8 mb - 0.00 in0.0 mm 0.00 in0.0 mm
12:10 AM 14.9°F-9.5°C 7.2°F-13.8°C 71% 12.7 mph WNW20.4 kmh WNW 20.7 mph33.3 kmh 29.72 in1006.4 mb - 0.00 in0.0 mm 0.00 in0.0 mm
12:00 AM 14.9°F-9.5°C 7.2°F-13.8°C 71% 13.8 mph NW22.2 kmh NW 26.5 mph42.6 kmh 29.72 in1006.4 mb - 0.00 in0.0 mm 0.00 in0.0 mm